Time;durP1;ratioP1;P1;durP2;ratioP2;P2;SDS_P1;SDS_P2;PMS_P1;PMS_P2;Temp;Humidity;BMP_temperature;BMP_pressure;BME280_temperature;BME280_humidity;BME280_pressure;Samples;Min_cycle;Max_cycle;Signal;HPM_P1;HPM_P2
2022/07/04 00:00:08;;;;;;;2.05;0.80;;;22.60;51.90;;;;;;5052890;28;20036;-61
2022/07/04 00:02:35;;;;;;;3.92;0.82;;;22.60;52.30;;;;;;5042566;28;20036;-60
2022/07/04 00:05:01;;;;;;;3.40;0.65;;;22.60;52.10;;;;;;5050762;28;20022;-61
2022/07/04 00:07:27;;;;;;;5.35;1.20;;;22.60;52.40;;;;;;5047014;28;20082;-60
2022/07/04 00:09:52;;;;;;;1.95;0.60;;;22.60;52.70;;;;;;5061456;28;20052;-60
2022/07/04 00:12:18;;;;;;;0.93;0.70;;;22.60;52.80;;;;;;5044502;28;20025;-61
2022/07/04 00:14:44;;;;;;;1.48;0.63;;;22.50;52.90;;;;;;5033356;28;20033;-61
2022/07/04 00:17:09;;;;;;;0.93;0.70;;;22.60;53.10;;;;;;5046010;28;20045;-61
2022/07/04 00:19:35;;;;;;;2.05;0.95;;;22.50;53.10;;;;;;5066173;28;20483;-61
2022/07/04 00:22:01;;;;;;;3.50;0.80;;;22.50;53.10;;;;;;5044493;28;20564;-62
2022/07/04 00:24:27;;;;;;;2.15;1.10;;;22.50;53.20;;;;;;5052439;28;20017;-62
2022/07/04 00:26:52;;;;;;;3.55;1.08;;;22.50;53.20;;;;;;5057947;28;20522;-62
2022/07/04 00:29:18;;;;;;;2.33;0.77;;;22.50;53.00;;;;;;5047535;28;20064;-61
2022/07/04 00:31:44;;;;;;;2.05;0.90;;;22.50;53.10;;;;;;5045847;28;20057;-60
2022/07/04 00:34:10;;;;;;;1.40;0.80;;;22.50;53.30;;;;;;5054940;28;20022;-61
2022/07/04 00:36:36;;;;;;;2.78;0.80;;;22.50;53.20;;;;;;5032913;28;20105;-62
2022/07/04 00:39:02;;;;;;;3.60;1.00;;;22.40;53.30;;;;;;5066996;28;20033;-60
2022/07/04 00:41:27;;;;;;;1.20;0.70;;;22.40;53.40;;;;;;5045513;28;20053;-60
2022/07/04 00:44:04;;;;;;;3.70;0.80;;;22.30;53.40;;;;;;5057792;28;20029;-61
2022/07/04 00:46:30;;;;;;;4.20;0.90;;;22.30;54.60;;;;;;5044116;28;20104;-60
2022/07/04 00:48:56;;;;;;;1.95;0.95;;;22.20;53.70;;;;;;5050300;28;20025;-60
2022/07/04 00:51:23;;;;;;;2.67;0.77;;;22.20;53.70;;;;;;5054568;28;20026;-61
2022/07/04 00:53:50;;;;;;;1.20;0.65;;;22.20;53.70;;;;;;5054689;28;20041;-61
2022/07/04 00:56:16;;;;;;;2.22;0.85;;;22.10;53.60;;;;;;5043645;28;20113;-61
2022/07/04 00:58:42;;;;;;;2.05;0.80;;;22.10;53.80;;;;;;5062270;28;20040;-60
2022/07/04 01:01:07;;;;;;;0.90;0.80;;;22.10;54.00;;;;;;5047271;28;20108;-61
2022/07/04 01:03:35;;;;;;;2.92;0.93;;;22.10;54.10;;;;;;5052753;28;20025;-60
2022/07/04 01:06:00;;;;;;;2.35;0.70;;;22.00;54.20;;;;;;5029963;28;20034;-60
2022/07/04 01:08:26;;;;;;;1.55;0.60;;;22.00;54.00;;;;;;5046835;28;20474;-61
2022/07/04 01:10:52;;;;;;;0.82;0.60;;;22.00;53.80;;;;;;5051410;28;20025;-61
2022/07/04 01:13:24;;;;;;;1.30;0.82;;;21.90;53.70;;;;;;5043563;28;20033;-60
2022/07/04 01:15:51;;;;;;;1.27;0.80;;;21.90;54.60;;;;;;5060081;28;20412;-61
2022/07/04 01:18:17;;;;;;;1.65;0.75;;;21.90;54.40;;;;;;5043454;28;20041;-60
2022/07/04 01:20:43;;;;;;;2.13;0.77;;;21.90;54.80;;;;;;5044958;28;20040;-61
2022/07/04 01:23:09;;;;;;;3.20;0.80;;;21.90;55.00;;;;;;5030402;28;20025;-60
2022/07/04 01:25:35;;;;;;;2.55;0.80;;;21.90;55.20;;;;;;5050906;28;20108;-60
2022/07/04 01:28:02;;;;;;;2.92;1.15;;;21.80;55.20;;;;;;5048257;28;20562;-60
2022/07/04 01:30:29;;;;;;;5.25;1.50;;;21.80;55.40;;;;;;5054876;28;20029;-62
2022/07/04 01:32:56;;;;;;;1.42;0.82;;;21.70;55.50;;;;;;5046662;28;20121;-60
2022/07/04 01:35:22;;;;;;;2.60;0.75;;;21.70;55.60;;;;;;5062824;28;20041;-60
2022/07/04 01:37:49;;;;;;;1.92;0.80;;;21.70;55.60;;;;;;5039487;28;20762;-60
2022/07/04 01:40:14;;;;;;;1.10;0.70;;;21.70;55.70;;;;;;5053108;28;20036;-61
2022/07/04 01:42:41;;;;;;;1.23;0.80;;;21.70;55.80;;;;;;5048464;28;20348;-62
2022/07/04 01:45:07;;;;;;;0.80;0.80;;;21.60;55.50;;;;;;5047194;28;20044;-61
2022/07/04 01:47:34;;;;;;;1.00;0.73;;;21.60;55.10;;;;;;5047282;28;20051;-60
2022/07/04 01:50:00;;;;;;;1.80;1.15;;;21.60;54.90;;;;;;5055155;28;20087;-61
2022/07/04 01:52:25;;;;;;;1.63;0.90;;;21.50;54.70;;;;;;5051010;28;20087;-61
2022/07/04 01:54:52;;;;;;;2.30;1.75;;;21.50;54.70;;;;;;5056741;28;20060;-60
2022/07/04 01:57:17;;;;;;;3.40;1.85;;;21.50;55.20;;;;;;5046038;28;20033;-60
2022/07/04 02:02:27;;;;;;;3.45;0.90;;;21.50;55.70;;;;;;5043029;28;20047;-60
2022/07/04 02:04:53;;;;;;;1.25;0.80;;;21.40;55.20;;;;;;5052181;28;20053;-60
2022/07/04 02:07:19;;;;;;;1.75;0.77;;;21.40;54.90;;;;;;5056941;28;20040;-62
2022/07/04 02:09:45;;;;;;;2.33;0.90;;;21.30;55.20;;;;;;5047562;28;20044;-61
2022/07/04 02:14:55;;;;;;;0.70;0.70;;;21.30;55.80;;;;;;5044303;28;20040;-60
2022/07/04 02:17:21;;;;;;;1.05;0.68;;;21.30;55.70;;;;;;5052057;28;20065;-61
2022/07/04 02:19:47;;;;;;;1.58;0.90;;;21.30;56.00;;;;;;5046987;28;20029;-60
2022/07/04 02:22:14;;;;;;;1.55;1.20;;;21.30;56.10;;;;;;5050713;28;20036;-61
2022/07/04 02:24:39;;;;;;;1.73;0.82;;;21.20;56.10;;;;;;5057401;28;20949;-60
2022/07/04 02:27:05;;;;;;;1.90;0.82;;;21.20;56.20;;;;;;5052791;28;20081;-60
2022/07/04 02:29:31;;;;;;;1.48;0.80;;;21.20;56.20;;;;;;5044241;28;20088;-60
2022/07/04 02:31:57;;;;;;;1.17;0.70;;;21.20;56.40;;;;;;5055197;28;20101;-61
2022/07/04 02:34:23;;;;;;;2.65;0.70;;;21.20;56.40;;;;;;5057594;28;20029;-60
2022/07/04 02:36:48;;;;;;;1.58;0.90;;;21.10;56.40;;;;;;5052332;28;20041;-60
2022/07/04 02:39:14;;;;;;;2.65;0.80;;;21.10;56.40;;;;;;5063331;28;20543;-60
2022/07/04 02:41:40;;;;;;;3.75;0.98;;;21.10;56.70;;;;;;5053216;28;20086;-61
2022/07/04 02:44:06;;;;;;;1.55;0.73;;;21.10;56.60;;;;;;5052392;28;20037;-62
2022/07/04 02:46:32;;;;;;;1.85;1.27;;;21.10;56.60;;;;;;5047296;28;20025;-60
2022/07/04 02:48:59;;;;;;;3.88;0.95;;;21.10;56.70;;;;;;5045614;28;20037;-61
2022/07/04 02:51:24;;;;;;;1.27;0.70;;;21.10;56.70;;;;;;5040575;28;20025;-62
2022/07/04 02:53:50;;;;;;;1.90;0.70;;;21.10;56.70;;;;;;5068054;28;20116;-60
2022/07/04 02:56:16;;;;;;;2.05;0.80;;;21.10;56.80;;;;;;5046915;28;20052;-59
2022/07/04 02:58:42;;;;;;;1.25;0.90;;;21.10;57.10;;;;;;5050945;28;20040;-61
2022/07/04 03:01:07;;;;;;;2.53;1.02;;;21.10;56.60;;;;;;5040741;28;20054;-61
2022/07/04 03:03:33;;;;;;;3.30;0.90;;;21.10;56.60;;;;;;5048872;28;20025;-61
2022/07/04 03:05:59;;;;;;;1.88;0.90;;;21.10;57.40;;;;;;5055361;28;20026;-60
2022/07/04 03:08:25;;;;;;;2.72;1.00;;;21.10;57.00;;;;;;5053375;28;20044;-61
2022/07/04 03:10:51;;;;;;;7.55;1.08;;;21.20;56.90;;;;;;5046019;28;20036;-62
2022/07/04 03:13:17;;;;;;;2.15;0.80;;;21.20;57.50;;;;;;5047230;28;20029;-62
2022/07/04 03:15:43;;;;;;;3.58;0.90;;;21.20;56.90;;;;;;5054913;28;20106;-63
2022/07/04 03:18:09;;;;;;;2.13;1.00;;;21.20;56.90;;;;;;5047116;28;20049;-62
2022/07/04 03:20:34;;;;;;;1.75;1.00;;;21.20;56.90;;;;;;5050821;28;20029;-61
2022/07/04 03:23:00;;;;;;;2.08;1.08;;;21.30;57.00;;;;;;5046361;28;20029;-60
2022/07/04 03:25:26;;;;;;;2.08;0.93;;;21.30;56.90;;;;;;5045060;28;20512;-60
2022/07/04 03:27:52;;;;;;;6.15;1.10;;;21.30;56.90;;;;;;5060503;28;20067;-61
2022/07/04 03:30:18;;;;;;;3.35;1.10;;;21.30;56.90;;;;;;5068648;28;20025;-61
2022/07/04 03:32:43;;;;;;;3.47;1.00;;;21.40;56.80;;;;;;5049223;28;20034;-61
2022/07/04 03:35:09;;;;;;;1.52;0.88;;;21.40;56.80;;;;;;5045432;28;20495;-61
2022/07/04 03:37:35;;;;;;;3.20;1.10;;;21.40;56.80;;;;;;5068234;28;20111;-62
2022/07/04 03:40:00;;;;;;;2.10;1.10;;;21.40;56.60;;;;;;5040358;28;20026;-61
2022/07/04 03:42:26;;;;;;;3.92;1.08;;;21.50;56.60;;;;;;5057132;28;20025;-61
2022/07/04 03:44:52;;;;;;;5.63;0.95;;;21.50;56.70;;;;;;5050806;28;20140;-62
2022/07/04 03:47:18;;;;;;;2.60;1.05;;;21.50;56.60;;;;;;5064542;28;20029;-60
2022/07/04 03:49:43;;;;;;;0.75;0.75;;;21.50;57.10;;;;;;5044831;28;20036;-62
2022/07/04 03:52:09;;;;;;;5.43;1.10;;;21.60;56.50;;;;;;5048693;28;20476;-61
2022/07/04 03:54:35;;;;;;;1.88;1.00;;;21.60;56.40;;;;;;5037307;28;20088;-60
2022/07/04 03:57:00;;;;;;;2.22;1.02;;;21.60;56.40;;;;;;5054147;28;20076;-61
2022/07/04 03:59:26;;;;;;;1.10;0.90;;;21.60;56.40;;;;;;5049546;28;20089;-59
2022/07/04 04:01:52;;;;;;;2.03;1.00;;;21.60;56.40;;;;;;5049143;28;20034;-60
2022/07/04 04:07:02;;;;;;;2.58;0.90;;;21.60;56.40;;;;;;5049238;28;20064;-60
2022/07/04 04:09:28;;;;;;;2.28;0.80;;;21.60;56.40;;;;;;5048260;28;20040;-60
2022/07/04 04:11:54;;;;;;;1.33;0.82;;;21.70;56.60;;;;;;5049675;28;20025;-61
2022/07/04 04:14:19;;;;;;;1.30;0.80;;;21.70;56.70;;;;;;5047688;28;20056;-60
2022/07/04 04:16:45;;;;;;;3.60;0.90;;;21.70;56.60;;;;;;5054396;28;20033;-61
2022/07/04 04:19:11;;;;;;;2.92;0.93;;;21.70;56.60;;;;;;5048657;28;20037;-60
2022/07/04 04:21:37;;;;;;;2.60;1.42;;;21.70;56.90;;;;;;5044756;28;20029;-61
2022/07/04 04:24:03;;;;;;;1.92;0.80;;;21.70;57.00;;;;;;5061209;28;20030;-61
2022/07/04 04:26:30;;;;;;;1.80;0.90;;;21.70;56.90;;;;;;5047468;28;20520;-60
2022/07/04 04:28:55;;;;;;;3.97;1.10;;;21.70;57.10;;;;;;5059249;28;20053;-61
2022/07/04 04:31:21;;;;;;;1.05;0.80;;;21.70;57.10;;;;;;5055428;28;20017;-61
2022/07/04 04:33:47;;;;;;;2.17;0.95;;;21.70;57.10;;;;;;5047359;28;20041;-61
2022/07/04 04:36:13;;;;;;;2.17;0.90;;;21.70;57.10;;;;;;5056302;28;20037;-60
2022/07/04 04:38:39;;;;;;;6.60;1.10;;;21.70;57.30;;;;;;5061856;28;20053;-60
2022/07/04 04:41:04;;;;;;;1.98;0.80;;;21.70;57.40;;;;;;5046574;28;20029;-60
2022/07/04 04:43:30;;;;;;;3.72;1.10;;;21.80;57.50;;;;;;5046683;28;20116;-61
2022/07/04 04:45:56;;;;;;;3.25;1.00;;;21.80;57.50;;;;;;5049841;28;20048;-61
2022/07/04 04:48:22;;;;;;;4.97;1.05;;;21.80;57.50;;;;;;5056741;28;20057;-61
2022/07/04 04:50:47;;;;;;;4.43;0.90;;;21.80;57.50;;;;;;5054709;28;20064;-61
2022/07/04 04:53:13;;;;;;;0.95;0.75;;;21.80;57.50;;;;;;5051106;28;20036;-60
2022/07/04 04:55:39;;;;;;;3.13;0.90;;;21.80;57.40;;;;;;5042787;28;20065;-61
2022/07/04 04:58:05;;;;;;;2.40;1.15;;;21.80;57.00;;;;;;5049611;28;20023;-60
2022/07/04 05:00:31;;;;;;;1.50;0.95;;;21.80;56.90;;;;;;5053046;28;20443;-62
2022/07/04 05:02:58;;;;;;;4.78;0.90;;;21.80;56.90;;;;;;5048214;28;20029;-61
2022/07/04 05:05:24;;;;;;;3.90;1.00;;;21.80;57.10;;;;;;5052717;28;20049;-61
2022/07/04 05:07:50;;;;;;;3.67;1.30;;;21.80;57.10;;;;;;5040363;28;20033;-60
2022/07/04 05:10:15;;;;;;;3.10;1.10;;;21.80;57.00;;;;;;5063166;28;20028;-62
2022/07/04 05:12:45;;;;;;;2.72;0.93;;;21.80;57.70;;;;;;5033213;28;20029;-61
2022/07/04 05:15:11;;;;;;;1.98;1.02;;;21.80;57.50;;;;;;5056593;28;20031;-62
2022/07/04 05:17:37;;;;;;;3.05;0.98;;;21.80;57.40;;;;;;5053464;28;20049;-61
2022/07/04 05:20:03;;;;;;;3.13;1.00;;;21.80;57.30;;;;;;5050573;28;20028;-61
2022/07/04 05:22:28;;;;;;;3.42;0.90;;;21.80;57.40;;;;;;5045400;28;20091;-60
2022/07/04 05:24:59;;;;;;;1.85;0.85;;;21.90;57.60;;;;;;5060546;28;20817;-61
2022/07/04 05:27:26;;;;;;;1.98;0.90;;;21.90;57.80;;;;;;5039482;28;21129;-61
2022/07/04 05:29:53;;;;;;;0.80;0.80;;;22.00;57.80;;;;;;5049200;28;20456;-60
2022/07/04 05:32:18;;;;;;;1.55;0.93;;;22.10;57.70;;;;;;5050152;28;20093;-60
2022/07/04 05:34:44;;;;;;;1.23;0.90;;;22.10;57.60;;;;;;5052142;28;20029;-62
2022/07/04 05:37:09;;;;;;;4.25;1.33;;;22.20;57.20;;;;;;5048257;28;20037;-60
2022/07/04 05:39:35;;;;;;;1.40;0.80;;;22.20;56.80;;;;;;5048443;28;20051;-61
2022/07/04 05:42:01;;;;;;;1.90;1.00;;;22.30;56.60;;;;;;5038282;28;20025;-61
2022/07/04 05:44:28;;;;;;;1.83;0.93;;;22.30;56.70;;;;;;5040621;28;20036;-61
2022/07/04 05:46:54;;;;;;;2.67;1.02;;;22.60;56.70;;;;;;5051061;28;20026;-60
2022/07/04 05:49:19;;;;;;;2.60;0.60;;;22.40;56.50;;;;;;5048963;28;20221;-61
2022/07/04 05:51:45;;;;;;;3.72;0.90;;;22.50;56.40;;;;;;5061173;28;20033;-61
2022/07/04 05:54:11;;;;;;;1.33;0.90;;;22.50;56.30;;;;;;5050589;28;20030;-61
2022/07/04 05:56:37;;;;;;;1.83;0.85;;;22.60;56.30;;;;;;5057129;28;20067;-60
2022/07/04 05:59:03;;;;;;;2.75;1.10;;;22.60;56.00;;;;;;5040789;28;20034;-61
2022/07/04 06:01:29;;;;;;;4.70;1.20;;;22.70;56.20;;;;;;5046644;28;20425;-60
2022/07/04 06:03:54;;;;;;;1.50;0.80;;;22.80;56.20;;;;;;5053482;28;20030;-60
2022/07/04 06:06:20;;;;;;;2.60;1.25;;;22.80;56.40;;;;;;5052116;28;20501;-61
2022/07/04 06:08:46;;;;;;;2.10;1.25;;;22.90;56.40;;;;;;5046301;28;20022;-61
2022/07/04 06:11:11;;;;;;;9.05;1.17;;;22.90;56.10;;;;;;5046728;28;20491;-60
2022/07/04 06:13:37;;;;;;;3.13;1.30;;;22.90;55.90;;;;;;5053771;28;20064;-63
2022/07/04 06:16:03;;;;;;;1.20;0.90;;;22.90;55.70;;;;;;5042811;28;20044;-60
2022/07/04 06:18:29;;;;;;;2.95;1.17;;;22.90;55.70;;;;;;5053218;28;20022;-60
2022/07/04 06:20:55;;;;;;;2.35;0.90;;;22.90;55.80;;;;;;5062789;28;20021;-60
2022/07/04 06:23:21;;;;;;;2.40;1.20;;;22.80;56.00;;;;;;5041404;28;20061;-61
2022/07/04 06:25:47;;;;;;;4.50;1.30;;;22.80;55.90;;;;;;5045285;28;20029;-61
2022/07/04 06:28:12;;;;;;;2.20;1.00;;;22.90;56.00;;;;;;5053405;28;20400;-61
2022/07/04 06:30:38;;;;;;;3.03;1.08;;;22.90;56.00;;;;;;5043673;28;20121;-61
2022/07/04 06:33:04;;;;;;;2.75;1.20;;;22.90;55.70;;;;;;5039394;28;20037;-62
2022/07/04 06:35:46;;;;;;;4.88;1.10;;;23.00;55.90;;;;;;5044331;28;20033;-61
2022/07/04 06:38:18;;;;;;;1.45;0.98;;;23.00;55.70;;;;;;5042434;28;20036;-60
2022/07/04 06:40:44;;;;;;;2.55;1.30;;;23.10;55.60;;;;;;5046032;28;20040;-61
2022/07/04 06:43:10;;;;;;;4.60;1.45;;;23.10;55.30;;;;;;5034796;28;20021;-60
2022/07/04 06:45:36;;;;;;;6.95;1.20;;;23.20;55.10;;;;;;5039194;28;20511;-61
2022/07/04 06:48:05;;;;;;;2.80;1.17;;;23.20;55.50;;;;;;5038168;28;20041;-60
2022/07/04 06:50:32;;;;;;;3.05;1.00;;;23.20;55.40;;;;;;5047389;28;20035;-60
2022/07/04 06:53:06;;;;;;;1.98;1.02;;;23.30;55.30;;;;;;5041777;28;20021;-61
2022/07/04 06:55:32;;;;;;;2.90;1.13;;;23.30;54.90;;;;;;5034662;28;20041;-62
2022/07/04 06:57:58;;;;;;;3.53;1.30;;;23.40;54.80;;;;;;5038106;28;20117;-61
2022/07/04 07:00:25;;;;;;;6.78;1.13;;;23.40;54.80;;;;;;5045423;28;20042;-60
2022/07/04 07:02:51;;;;;;;2.33;1.10;;;23.40;54.50;;;;;;5044438;28;20567;-60
2022/07/04 07:05:17;;;;;;;1.88;1.08;;;23.50;54.80;;;;;;5050715;28;20121;-60
2022/07/04 07:07:43;;;;;;;2.20;1.05;;;23.50;54.90;;;;;;5043620;28;20144;-61
2022/07/04 07:10:09;;;;;;;6.60;1.65;;;23.60;54.80;;;;;;5035750;28;20013;-61
2022/07/04 07:12:36;;;;;;;2.33;1.10;;;23.70;54.60;;;;;;5039072;28;20048;-61
2022/07/04 07:15:02;;;;;;;1.58;1.00;;;23.80;54.00;;;;;;5037101;28;20037;-61
2022/07/04 07:17:28;;;;;;;3.70;0.95;;;23.90;54.10;;;;;;5045124;28;20060;-61
2022/07/04 07:19:54;;;;;;;4.60;1.10;;;24.00;53.80;;;;;;5043298;28;20030;-61
2022/07/04 07:22:20;;;;;;;3.08;1.08;;;24.20;54.10;;;;;;5044075;28;20943;-62
2022/07/04 07:24:46;;;;;;;2.28;0.93;;;24.30;53.70;;;;;;5033298;28;20034;-60
2022/07/04 07:27:12;;;;;;;2.30;1.10;;;24.40;53.20;;;;;;4939371;28;20044;-62
2022/07/04 07:29:38;;;;;;;4.57;1.10;;;24.50;53.20;;;;;;5044256;28;20049;-61
2022/07/04 07:32:05;;;;;;;4.88;1.20;;;24.70;52.60;;;;;;5039504;28;20025;-60
2022/07/04 07:34:31;;;;;;;3.47;1.10;;;24.70;52.00;;;;;;5043055;28;20029;-61
2022/07/04 07:36:57;;;;;;;2.08;1.02;;;24.70;52.10;;;;;;5048995;28;20038;-61
2022/07/04 07:39:22;;;;;;;4.90;1.05;;;24.80;52.00;;;;;;5056163;28;20492;-61
2022/07/04 07:41:48;;;;;;;2.70;1.00;;;24.90;52.10;;;;;;5044753;28;20039;-61
2022/07/04 07:44:14;;;;;;;2.40;0.90;;;25.00;52.20;;;;;;5052106;28;20029;-60
2022/07/04 07:46:40;;;;;;;5.20;1.50;;;25.10;52.30;;;;;;5043909;28;20089;-61
2022/07/04 07:49:05;;;;;;;2.75;1.20;;;25.20;51.80;;;;;;5052192;28;20033;-61
2022/07/04 07:51:31;;;;;;;5.45;1.30;;;25.30;52.00;;;;;;5044597;28;20782;-60
2022/07/04 07:53:57;;;;;;;7.22;1.17;;;25.40;52.10;;;;;;5053505;28;20105;-60
2022/07/04 07:56:23;;;;;;;2.45;1.27;;;25.50;52.00;;;;;;5054278;28;20033;-60
2022/07/04 07:58:50;;;;;;;2.50;1.08;;;25.60;51.60;;;;;;5048545;28;20440;-61
2022/07/04 08:01:15;;;;;;;1.67;0.90;;;25.70;51.20;;;;;;5057674;28;20033;-60
2022/07/04 08:06:25;;;;;;;3.53;1.10;;;26.00;50.90;;;;;;5034692;28;20053;-60
2022/07/04 08:08:51;;;;;;;2.33;1.15;;;26.10;50.50;;;;;;5045491;28;20029;-60
2022/07/04 08:11:17;;;;;;;1.30;1.10;;;26.10;51.00;;;;;;5061259;28;20029;-61
2022/07/04 08:13:43;;;;;;;3.83;0.90;;;26.20;50.70;;;;;;5047071;28;20116;-60
2022/07/04 08:16:09;;;;;;;1.50;1.00;;;26.20;50.60;;;;;;5048917;28;20061;-61
2022/07/04 08:18:35;;;;;;;1.55;0.88;;;26.20;50.80;;;;;;5055582;28;20084;-60
2022/07/04 08:21:01;;;;;;;2.60;1.00;;;26.30;50.60;;;;;;5048295;28;20040;-61
2022/07/04 08:23:29;;;;;;;3.72;0.93;;;26.40;50.70;;;;;;5047796;28;20158;-60
2022/07/04 08:25:56;;;;;;;2.92;0.95;;;26.40;50.90;;;;;;5044379;28;20033;-61
2022/07/04 08:28:21;;;;;;;6.07;1.10;;;26.60;50.80;;;;;;5056457;28;20076;-61
2022/07/04 08:30:48;;;;;;;1.40;0.90;;;26.60;50.30;;;;;;5061109;28;20049;-61
2022/07/04 08:33:14;;;;;;;2.33;1.40;;;26.80;49.90;;;;;;5050235;28;20036;-62
2022/07/04 08:35:39;;;;;;;4.93;1.10;;;26.90;49.80;;;;;;5062715;28;20029;-61
2022/07/04 08:38:06;;;;;;;2.83;1.02;;;27.00;49.10;;;;;;5047021;28;20032;-61
2022/07/04 08:40:33;;;;;;;4.82;1.20;;;27.10;49.00;;;;;;5066597;28;20080;-61
2022/07/04 08:43:01;;;;;;;1.50;0.85;;;27.20;49.30;;;;;;5045592;28;20025;-61
2022/07/04 08:45:32;;;;;;;1.88;0.90;;;27.30;49.40;;;;;;5067863;28;20029;-61
2022/07/04 08:48:03;;;;;;;1.42;0.77;;;27.40;49.40;;;;;;5038866;28;20411;-60
2022/07/04 08:50:43;;;;;;;1.92;1.20;;;27.60;49.20;;;;;;5054557;28;20029;-62
2022/07/04 08:53:14;;;;;;;4.50;1.13;;;27.70;48.00;;;;;;5035901;28;20483;-62
2022/07/04 08:58:29;;;;;;;0.98;0.80;;;27.90;47.70;;;;;;5035845;28;20064;-61
2022/07/04 09:01:04;;;;;;;3.75;1.00;;;27.90;48.40;;;;;;5051651;28;20103;-60
2022/07/04 09:03:31;;;;;;;1.10;0.80;;;28.00;47.60;;;;;;5044341;28;20056;-61
2022/07/04 09:05:57;;;;;;;1.05;0.90;;;28.20;47.20;;;;;;5065424;28;20024;-60
2022/07/04 09:08:24;;;;;;;3.83;1.10;;;28.30;46.70;;;;;;5051269;28;20047;-60
2022/07/04 09:10:51;;;;;;;2.40;1.02;;;28.40;46.00;;;;;;5060537;28;20080;-61
2022/07/04 09:13:17;;;;;;;2.92;0.82;;;28.50;45.10;;;;;;5045962;28;20049;-61
2022/07/04 09:15:45;;;;;;;4.38;0.73;;;28.50;44.90;;;;;;5044305;28;20037;-61
2022/07/04 09:18:28;;;;;;;4.05;1.02;;;28.60;44.30;;;;;;5050496;28;20026;-60
2022/07/04 09:20:56;;;;;;;7.15;1.08;;;28.60;42.60;;;;;;5044520;28;20022;-61
2022/07/04 09:23:28;;;;;;;2.05;0.80;;;28.50;43.10;;;;;;5052070;28;20033;-61
2022/07/04 09:26:26;;;;;;;2.28;0.70;;;28.40;42.70;;;;;;5058547;28;20388;-61
2022/07/04 09:28:53;;;;;;;2.15;1.00;;;28.20;43.40;;;;;;5047321;28;20087;-60
2022/07/04 09:31:38;;;;;;;2.00;0.90;;;28.20;44.40;;;;;;5034226;28;20033;-60
2022/07/04 09:34:06;;;;;;;0.98;0.80;;;28.10;44.10;;;;;;5040217;28;20042;-61
2022/07/04 09:36:34;;;;;;;1.75;0.77;;;28.10;44.30;;;;;;5034129;28;20045;-61
2022/07/04 09:39:09;;;;;;;2.70;0.90;;;28.10;44.00;;;;;;5042627;28;20037;-60
2022/07/04 09:41:51;;;;;;;6.28;1.92;;;28.00;43.50;;;;;;5042950;28;20033;-60
2022/07/04 09:44:18;;;;;;;1.25;0.88;;;27.90;43.90;;;;;;5042291;28;20129;-61
2022/07/04 09:46:43;;;;;;;2.47;0.82;;;27.90;44.50;;;;;;5042774;28;20559;-61
2022/07/04 09:49:11;;;;;;;2.90;1.00;;;27.90;44.60;;;;;;5038350;28;20056;-61
2022/07/04 09:51:44;;;;;;;4.05;1.00;;;27.90;44.10;;;;;;5039921;28;20038;-60
2022/07/04 09:54:21;;;;;;;4.65;1.35;;;27.90;44.10;;;;;;5039431;28;20030;-60
2022/07/04 09:56:49;;;;;;;2.78;0.82;;;27.90;44.30;;;;;;5038747;28;20037;-62
2022/07/04 09:59:15;;;;;;;2.10;0.80;;;27.90;44.50;;;;;;5042887;28;20045;-61
2022/07/04 10:01:41;;;;;;;2.50;0.85;;;27.90;44.80;;;;;;5033393;28;20033;-60
2022/07/04 10:04:07;;;;;;;2.70;0.90;;;28.00;44.60;;;;;;5020844;28;20038;-60
2022/07/04 10:06:34;;;;;;;1.63;0.80;;;28.00;44.00;;;;;;5007404;28;20036;-61
2022/07/04 10:09:17;;;;;;;1.48;0.85;;;28.00;44.00;;;;;;5014805;28;20021;-60
2022/07/04 10:11:46;;;;;;;3.17;0.80;;;28.00;43.20;;;;;;5012220;28;20026;-62
2022/07/04 10:14:14;;;;;;;3.40;0.90;;;28.00;43.80;;;;;;5010023;28;20112;-61
2022/07/04 10:16:40;;;;;;;1.98;0.90;;;27.90;44.30;;;;;;5017584;28;20053;-60
2022/07/04 10:19:08;;;;;;;3.03;0.80;;;28.00;44.50;;;;;;5024579;28;20036;-61
2022/07/04 10:21:34;;;;;;;6.53;1.25;;;28.00;44.50;;;;;;5012133;28;20037;-60
2022/07/04 10:24:00;;;;;;;1.58;0.85;;;28.00;43.90;;;;;;5012276;28;20022;-60
2022/07/04 10:26:29;;;;;;;1.58;0.82;;;28.00;43.80;;;;;;5039311;28;20045;-61
2022/07/04 10:28:56;;;;;;;1.33;0.77;;;28.10;44.10;;;;;;5025511;28;20042;-61
2022/07/04 10:31:24;;;;;;;1.77;0.77;;;28.10;44.20;;;;;;5026338;28;20029;-60
2022/07/04 10:33:51;;;;;;;2.67;1.02;;;28.10;44.00;;;;;;5031927;28;20029;-61
2022/07/04 10:36:20;;;;;;;2.55;1.30;;;28.10;43.80;;;;;;5029730;28;20035;-61
2022/07/04 10:38:54;;;;;;;2.33;0.82;;;28.20;43.50;;;;;;5031197;28;20030;-61
2022/07/04 10:41:21;;;;;;;;;;;28.30;44.20;;;;;;5032214;28;20052;-60
2022/07/04 10:44:06;;;;;;;3.17;0.90;;;28.30;44.80;;;;;;5043298;28;19913;-60
2022/07/04 10:46:37;;;;;;;2.28;1.00;;;28.50;43.20;;;;;;5033298;28;20040;-62
2022/07/04 10:49:06;;;;;;;3.25;1.15;;;28.70;44.60;;;;;;5029432;28;20929;-61
2022/07/04 10:51:52;;;;;;;2.38;0.82;;;28.90;44.30;;;;;;5036651;28;20029;-62
2022/07/04 10:54:18;;;;;;;2.53;0.85;;;29.10;44.10;;;;;;5036472;28;20025;-61
2022/07/04 10:56:54;;;;;;;2.83;0.90;;;29.30;43.80;;;;;;5047454;28;20044;-61
2022/07/04 10:59:21;;;;;;;4.55;1.20;;;29.50;43.50;;;;;;5034646;28;20028;-62
2022/07/04 11:02:11;;;;;;;2.22;0.80;;;29.60;42.80;;;;;;5043096;28;20031;-65
2022/07/04 11:04:53;;;;;;;1.73;1.00;;;29.70;43.50;;;;;;5042820;28;20029;-61
2022/07/04 11:07:22;;;;;;;2.90;1.05;;;29.80;43.70;;;;;;5037423;28;20083;-61
2022/07/04 11:10:28;;;;;;;2.17;0.85;;;29.90;42.60;;;;;;5036231;28;20484;-60
2022/07/04 11:12:54;;;;;;;1.02;0.90;;;29.90;41.70;;;;;;5044776;28;20097;-61
2022/07/04 11:15:41;;;;;;;2.17;0.85;;;30.00;42.20;;;;;;5045381;28;20060;-61
2022/07/04 11:18:14;;;;;;;0.98;0.70;;;30.00;41.80;;;;;;5046359;28;20032;-61
2022/07/04 11:20:49;;;;;;;3.30;1.00;;;30.10;42.80;;;;;;5061941;28;20025;-61
2022/07/04 11:23:17;;;;;;;3.70;0.90;;;30.30;41.60;;;;;;5044151;28;20085;-61
2022/07/04 11:25:45;;;;;;;7.80;1.00;;;30.40;42.40;;;;;;5049429;28;20052;-62
2022/07/04 11:28:34;;;;;;;3.25;1.00;;;30.50;41.60;;;;;;5052159;28;20060;-62
2022/07/04 11:31:00;;;;;;;4.20;1.30;;;30.60;41.00;;;;;;5057847;28;20029;-61
2022/07/04 11:33:31;;;;;;;4.10;0.90;;;30.70;41.10;;;;;;5030251;28;20053;-61
2022/07/04 11:36:09;;;;;;;3.28;1.40;;;30.80;40.50;;;;;;5047595;28;20041;-61
2022/07/04 11:38:44;;;;;;;2.60;1.17;;;30.80;40.10;;;;;;5051062;28;20025;-61
2022/07/04 11:46:38;;;;;;;1.98;0.80;;;30.80;40.40;;;;;;5045075;28;20107;-61
2022/07/04 11:49:12;;;;;;;2.67;1.10;;;30.90;40.20;;;;;;5048828;28;20022;-60
2022/07/04 11:51:48;;;;;;;4.18;0.85;;;30.80;39.50;;;;;;5047425;28;20078;-63
2022/07/04 11:54:13;;;;;;;5.65;0.90;;;30.70;40.60;;;;;;5045443;28;20036;-62
2022/07/04 11:56:39;;;;;;;3.17;1.10;;;30.70;40.40;;;;;;5053100;28;20046;-61
2022/07/04 11:59:15;;;;;;;2.22;1.00;;;30.60;40.60;;;;;;5055380;28;20029;-62
2022/07/04 12:01:42;;;;;;;3.50;0.93;;;30.50;39.80;;;;;;5044130;28;20029;-61
2022/07/04 12:04:16;;;;;;;2.83;0.90;;;30.40;40.00;;;;;;5048725;28;20085;-60
2022/07/04 12:06:42;;;;;;;1.77;0.93;;;30.30;39.70;;;;;;5051043;28;20047;-60
2022/07/04 12:09:08;;;;;;;4.45;0.90;;;30.20;40.50;;;;;;5058048;28;20076;-62
2022/07/04 12:11:57;;;;;;;1.48;0.80;;;30.10;40.20;;;;;;5036017;28;20359;-61
2022/07/04 12:14:25;;;;;;;1.15;0.82;;;30.10;40.30;;;;;;5045084;28;20033;-60
2022/07/04 12:17:11;;;;;;;3.15;0.90;;;30.10;40.60;;;;;;5046617;28;20084;-61
2022/07/04 12:19:37;;;;;;;3.50;1.25;;;30.20;40.50;;;;;;5041902;28;20033;-62
2022/07/04 12:22:03;;;;;;;4.13;1.00;;;30.30;40.80;;;;;;5067643;28;20017;-61
2022/07/04 12:24:48;;;;;;;2.33;0.93;;;30.30;40.30;;;;;;5038910;28;20499;-61
2022/07/04 12:27:19;;;;;;;3.65;1.20;;;30.40;40.00;;;;;;5037171;28;20026;-61
2022/07/04 12:29:49;;;;;;;1.45;0.75;;;30.40;39.70;;;;;;5053753;28;20030;-60
2022/07/04 12:32:16;;;;;;;2.85;0.90;;;30.40;40.10;;;;;;5067092;28;20028;-61
2022/07/04 12:34:41;;;;;;;2.33;0.82;;;30.30;39.80;;;;;;5046701;28;20036;-61
2022/07/04 12:37:16;;;;;;;2.05;0.90;;;30.30;39.40;;;;;;5057959;28;20028;-61
2022/07/04 12:39:43;;;;;;;0.95;0.70;;;30.20;39.90;;;;;;5065903;28;20032;-61
2022/07/04 12:42:19;;;;;;;3.60;1.20;;;30.10;40.40;;;;;;5053291;28;20025;-61
2022/07/04 12:44:49;;;;;;;3.30;1.10;;;30.10;41.10;;;;;;5052555;28;20044;-60
2022/07/04 12:47:15;;;;;;;2.22;0.95;;;30.10;41.20;;;;;;5044081;28;20034;-60
2022/07/04 12:49:46;;;;;;;6.40;0.85;;;30.10;41.50;;;;;;5066613;28;20029;-62
2022/07/04 12:52:17;;;;;;;1.83;1.13;;;30.10;41.00;;;;;;5046087;28;20028;-61
2022/07/04 12:54:47;;;;;;;4.55;1.15;;;30.10;40.80;;;;;;5046562;28;20036;-61
2022/07/04 12:57:18;;;;;;;3.13;0.90;;;30.10;40.40;;;;;;5057698;28;20037;-60
2022/07/04 12:59:44;;;;;;;2.80;1.02;;;30.20;40.90;;;;;;5037745;28;20029;-60
2022/07/04 13:02:11;;;;;;;1.85;0.88;;;30.30;40.00;;;;;;5066608;28;20029;-61
2022/07/04 13:04:38;;;;;;;3.15;0.75;;;30.30;39.80;;;;;;5043838;28;20039;-61
2022/07/04 13:07:15;;;;;;;1.25;0.77;;;30.40;40.50;;;;;;5047737;28;20025;-62
2022/07/04 13:09:42;;;;;;;2.00;0.98;;;30.50;39.80;;;;;;5046988;28;20033;-61